createdAt,value
2019-04-05T00:00:21.186Z,42.90
2019-04-05T00:03:19.023Z,42.90
2019-04-05T00:08:12.236Z,43.10
2019-04-05T00:09:40.050Z,43.00
2019-04-05T00:12:37.774Z,43.80
2019-04-05T00:15:46.384Z,43.40
2019-04-05T00:18:42.569Z,43.60
2019-04-05T00:21:38.829Z,43.70
2019-04-05T00:24:43.231Z,43.60
2019-04-05T00:27:40.230Z,43.60
2019-04-05T00:30:36.443Z,43.70
2019-04-05T00:33:32.734Z,43.80
2019-04-05T00:36:33.105Z,43.80
2019-04-05T00:39:37.869Z,43.90
2019-04-05T00:42:38.585Z,43.80
2019-04-05T00:45:34.720Z,43.90
2019-04-05T00:48:31.222Z,44.00
2019-04-05T00:51:27.705Z,44.70
2019-04-05T00:54:28.731Z,44.10
2019-04-05T00:57:36.975Z,44.00
2019-04-05T01:00:23.792Z,44.00
2019-04-05T01:03:20.220Z,44.20
2019-04-05T01:06:21.625Z,44.50
2019-04-05T01:09:25.519Z,44.30
2019-04-05T01:12:23.712Z,44.80
2019-04-05T01:15:17.280Z,44.60
2019-04-05T01:18:14.869Z,44.90
2019-04-05T01:21:22.630Z,44.80
2019-04-05T01:24:09.841Z,45.30
2019-04-05T01:27:09.043Z,45.40
2019-04-05T01:30:11.469Z,45.20
2019-04-05T01:33:13.014Z,45.70
2019-04-05T01:36:03.915Z,45.80
2019-04-05T01:39:00.242Z,46.00
2019-04-05T01:42:02.388Z,45.80
2019-04-05T01:45:05.378Z,45.90
2019-04-05T01:48:04.852Z,45.60
2019-04-05T01:50:58.938Z,45.60
2019-04-05T01:53:54.780Z,45.90
2019-04-05T01:56:54.492Z,45.90
2019-04-05T01:59:50.979Z,46.00
2019-04-05T02:02:47.172Z,46.00
2019-04-05T02:05:43.961Z,45.90
2019-04-05T02:08:41.286Z,45.80
2019-04-05T02:11:38.091Z,46.10
2019-04-05T02:14:43.205Z,46.10
2019-04-05T02:18:05.174Z,46.80
2019-04-05T02:20:45.056Z,46.10
2019-04-05T02:23:45.669Z,46.50
2019-04-05T02:26:48.967Z,46.80
2019-04-05T02:29:47.476Z,46.40
2019-04-05T02:32:49.974Z,47.00
2019-04-05T02:38:38.949Z,46.50
2019-04-05T02:41:40.666Z,46.70
2019-04-05T02:44:43.415Z,46.50
2019-04-05T02:47:39.615Z,46.40
2019-04-05T02:50:46.256Z,46.90
2019-04-05T02:53:41.422Z,47.20
2019-04-05T02:56:37.522Z,46.80
2019-04-05T02:59:44.314Z,46.70
2019-04-05T03:02:34.160Z,46.60
2019-04-05T03:05:36.316Z,47.20
2019-04-05T03:09:06.600Z,47.10
2019-04-05T03:11:46.727Z,47.70
2019-04-05T03:14:59.941Z,47.20
2019-04-05T03:17:54.365Z,47.60
2019-04-05T03:21:12.962Z,47.90
2019-04-05T03:24:10.439Z,48.40
2019-04-05T03:27:16.910Z,48.70
2019-04-05T03:30:14.808Z,48.40
2019-04-05T03:36:18.773Z,48.40
2019-04-05T03:39:09.548Z,48.60
2019-04-05T03:45:04.622Z,49.40
2019-04-05T03:48:01.627Z,49.20
2019-04-05T03:50:58.388Z,49.10
2019-04-05T03:54:03.242Z,48.90
2019-04-05T03:56:52.432Z,48.50
2019-04-05T03:59:58.576Z,49.30
2019-04-05T04:02:55.937Z,48.90
2019-04-05T04:05:53.291Z,48.50
2019-04-05T04:08:54.285Z,48.70
2019-04-05T04:12:00.309Z,48.90
2019-04-05T04:15:13.325Z,48.40
2019-04-05T04:17:56.731Z,48.40
2019-04-05T04:21:00.985Z,48.40
2019-04-05T04:24:03.591Z,48.70
2019-04-05T04:27:00.629Z,48.70
2019-04-05T04:30:17.414Z,48.50
2019-04-05T04:33:23.515Z,48.50
2019-04-05T04:36:05.152Z,48.40
2019-04-05T04:39:03.093Z,48.00
2019-04-05T04:42:19.012Z,47.50
2019-04-05T04:45:12.446Z,47.50
2019-04-05T04:48:06.869Z,46.90
2019-04-05T04:51:09.597Z,46.80
2019-04-05T04:54:12.024Z,46.20
2019-04-05T04:57:15.046Z,45.30
2019-04-05T05:00:17.929Z,47.00
2019-04-05T05:03:14.651Z,47.40
2019-04-05T05:06:21.815Z,46.10
2019-04-05T05:09:25.028Z,47.50
2019-04-05T05:13:05.139Z,49.40
2019-04-05T05:16:03.798Z,48.40
2019-04-05T05:22:19.307Z,49.00
2019-04-05T05:25:19.072Z,49.40
2019-04-05T05:28:18.637Z,48.50
2019-04-05T05:31:29.723Z,48.70
2019-04-05T05:34:30.424Z,48.70
2019-04-05T05:37:32.970Z,48.50
2019-04-05T05:48:30.858Z,48.40
2019-04-05T05:51:39.215Z,48.30
2019-04-05T05:55:36.322Z,47.00
2019-04-05T05:58:50.973Z,47.10
2019-04-05T06:01:53.898Z,46.30
2019-04-05T06:04:56.506Z,46.90
2019-04-05T06:08:00.913Z,46.50
2019-04-05T06:10:59.289Z,46.70
2019-04-05T06:14:24.613Z,46.80
2019-04-05T06:18:04.146Z,46.70
2019-04-05T06:20:59.804Z,46.40
2019-04-05T06:23:59.758Z,46.40
2019-04-05T06:27:03.565Z,46.10
2019-04-05T06:30:00.833Z,46.20
2019-04-05T06:33:00.455Z,45.80
2019-04-05T06:36:26.766Z,47.00
2019-04-05T06:39:32.290Z,46.00
2019-04-05T06:43:12.135Z,45.90
2019-04-05T06:46:01.695Z,47.00
2019-04-05T06:49:16.403Z,45.90
2019-04-05T06:52:16.063Z,45.30
2019-04-05T06:55:17.009Z,45.50
2019-04-05T06:58:29.082Z,44.30
2019-04-05T07:01:31.763Z,45.50
2019-04-05T07:04:49.744Z,44.40
2019-04-05T07:09:13.031Z,44.30
2019-04-05T07:12:07.673Z,45.30
2019-04-05T07:15:31.950Z,44.40
2019-04-05T07:19:09.713Z,45.60
2019-04-05T07:22:13.099Z,44.00
2019-04-05T07:28:24.898Z,44.30
2019-04-05T07:31:42.655Z,43.90
2019-04-05T07:34:51.219Z,44.50
2019-04-05T07:41:32.318Z,43.80
2019-04-05T07:44:44.935Z,43.20
2019-04-05T07:47:41.917Z,44.50
2019-04-05T07:50:38.454Z,43.80
2019-04-05T07:53:33.535Z,44.70
2019-04-05T07:56:34.929Z,42.90
2019-04-05T07:59:31.218Z,44.50
2019-04-05T08:02:43.030Z,43.40
2019-04-05T08:05:54.663Z,44.00
2019-04-05T08:09:22.873Z,43.80
2019-04-05T08:12:23.403Z,43.50
2019-04-05T08:15:18.618Z,42.90
2019-04-05T08:18:17.959Z,43.90
2019-04-05T08:21:15.873Z,42.70
2019-04-05T08:24:12.720Z,42.80
2019-04-05T08:27:13.275Z,43.50
2019-04-05T08:33:47.662Z,42.90
2019-04-05T08:36:48.993Z,42.60
2019-04-05T08:39:50.589Z,41.60
2019-04-05T08:46:14.006Z,42.50
2019-04-05T08:49:19.507Z,42.20
2019-04-05T08:52:20.348Z,43.60
2019-04-05T08:55:40.677Z,43.60
2019-04-05T08:58:38.719Z,44.00
2019-04-05T09:01:34.742Z,43.70
2019-04-05T09:05:12.089Z,42.10
2019-04-05T09:08:21.315Z,41.60
2019-04-05T09:11:16.459Z,42.00
2019-04-05T09:14:14.360Z,42.60
2019-04-05T09:17:15.685Z,41.50
2019-04-05T09:20:15.703Z,44.00
2019-04-05T09:23:33.159Z,42.00
2019-04-05T09:30:12.974Z,44.30
2019-04-05T09:33:11.284Z,41.20
2019-04-05T09:36:08.672Z,42.40
2019-04-05T09:39:05.894Z,41.30
2019-04-05T09:42:10.425Z,41.90
2019-04-05T09:45:13.163Z,42.10
2019-04-05T09:48:08.911Z,43.40
2019-04-05T09:51:27.379Z,41.40
2019-04-05T09:54:08.953Z,42.90
2019-04-05T09:57:05.748Z,41.90
2019-04-05T10:00:03.086Z,41.80
2019-04-05T10:03:05.368Z,41.80
2019-04-05T10:06:06.620Z,41.00
2019-04-05T10:09:07.216Z,43.60
2019-04-05T10:12:05.119Z,40.60
2019-04-05T10:15:03.032Z,42.00
2019-04-05T10:17:59.918Z,41.30
2019-04-05T10:21:10.633Z,42.80
2019-04-05T10:24:11.520Z,42.80
2019-04-05T10:27:10.830Z,41.20
2019-04-05T10:30:21.429Z,41.60
2019-04-05T10:33:19.682Z,40.80
2019-04-05T10:36:42.415Z,40.90
2019-04-05T10:39:42.735Z,40.80
2019-04-05T10:42:42.996Z,40.50
2019-04-05T10:45:40.554Z,41.20
2019-04-05T10:48:42.021Z,40.70
2019-04-05T10:51:43.555Z,40.60
2019-04-05T10:55:10.675Z,40.40
2019-04-05T10:58:11.491Z,40.60
2019-04-05T11:01:14.279Z,42.10
2019-04-05T11:04:10.171Z,41.10
2019-04-05T11:07:21.373Z,41.00
2019-04-05T11:10:20.715Z,42.60
2019-04-05T11:13:16.849Z,42.20
2019-04-05T11:16:19.162Z,42.30
2019-04-05T11:19:47.321Z,41.90
2019-04-05T11:23:11.884Z,42.50
2019-04-05T11:35:11.411Z,42.50
2019-04-05T11:38:54.167Z,42.30
2019-04-05T11:50:33.604Z,42.30
2019-04-05T12:29:26.946Z,42.80
2019-04-05T12:32:44.165Z,43.10
2019-04-05T12:36:31.138Z,42.80
2019-04-05T12:46:55.959Z,43.00
2019-04-05T12:50:22.655Z,43.50
2019-04-05T12:56:46.352Z,42.80
2019-04-05T12:59:44.745Z,43.50
2019-04-05T13:03:36.388Z,43.10
2019-04-05T13:34:20.593Z,42.20
2019-04-05T13:37:28.560Z,42.10
2019-04-05T13:40:29.574Z,41.90
2019-04-05T13:43:26.239Z,42.00
2019-04-05T13:46:46.177Z,42.40
2019-04-05T13:49:42.838Z,42.20
2019-04-05T13:52:42.296Z,42.50
2019-04-05T13:55:56.482Z,42.50
2019-04-05T13:58:57.396Z,42.30
2019-04-05T14:01:52.136Z,42.10
2019-04-05T14:04:53.929Z,42.10
2019-04-05T14:08:09.178Z,42.10
2019-04-05T14:10:53.325Z,42.10
2019-04-05T14:13:49.600Z,42.10
2019-04-05T14:16:47.130Z,42.10
2019-04-05T14:19:43.733Z,42.10
2019-04-05T14:22:39.411Z,42.20
2019-04-05T14:25:39.643Z,42.20
2019-04-05T14:28:34.905Z,42.30
2019-04-05T14:31:31.586Z,42.30
2019-04-05T14:34:26.782Z,42.30
2019-04-05T14:37:25.020Z,42.30
2019-04-05T14:40:21.506Z,42.40
2019-04-05T14:43:17.509Z,42.50
2019-04-05T14:46:12.325Z,42.50
2019-04-05T14:49:07.519Z,42.50
2019-04-05T14:52:03.785Z,42.50
2019-04-05T14:55:00.061Z,42.50
2019-04-05T14:57:55.787Z,42.50
2019-04-05T15:00:51.435Z,42.60
2019-04-05T15:04:01.911Z,42.60
2019-04-05T15:07:07.848Z,42.40
2019-04-05T15:10:03.835Z,42.50
2019-04-05T15:13:03.773Z,42.70
2019-04-05T15:19:29.739Z,42.70
2019-04-05T15:22:31.869Z,42.60
2019-04-05T15:25:32.098Z,42.60
2019-04-05T15:28:39.376Z,42.70
2019-04-05T15:31:34.551Z,42.60
2019-04-05T15:34:31.776Z,42.60
2019-04-05T15:37:31.599Z,42.60
2019-04-05T15:40:25.646Z,42.70
2019-04-05T15:43:23.072Z,42.80
2019-04-05T15:46:18.127Z,42.70
2019-04-05T15:49:13.186Z,42.80
2019-04-05T15:52:17.979Z,42.90
2019-04-05T15:55:04.639Z,42.80
2019-04-05T15:58:01.473Z,42.90
2019-04-05T16:00:55.911Z,42.80
2019-04-05T16:03:52.466Z,42.90
2019-04-05T16:06:51.142Z,42.90
2019-04-05T16:09:46.114Z,42.90
2019-04-05T16:12:41.102Z,43.60
2019-04-05T16:15:36.147Z,42.80
2019-04-05T16:18:31.686Z,42.80
2019-04-05T16:21:28.559Z,42.90
2019-04-05T16:24:23.547Z,42.90
2019-04-05T16:27:19.039Z,42.90
2019-04-05T16:30:14.639Z,42.80
2019-04-05T16:33:13.028Z,42.90
2019-04-05T16:36:09.570Z,42.90
2019-04-05T16:39:09.302Z,42.90
2019-04-05T16:42:10.065Z,42.90
2019-04-05T16:45:06.930Z,42.90
2019-04-05T16:48:03.911Z,43.00
2019-04-05T16:51:00.102Z,42.90
2019-04-05T16:54:03.254Z,43.20
2019-04-05T16:57:02.249Z,43.00
2019-04-05T16:59:57.004Z,43.00
2019-04-05T17:02:55.128Z,42.90
2019-04-05T17:05:50.190Z,43.00
2019-04-05T17:08:46.130Z,43.20
2019-04-05T17:11:42.651Z,43.20
2019-04-05T17:14:39.378Z,43.00
2019-04-05T17:17:35.135Z,43.00
2019-04-05T17:20:32.223Z,43.10
2019-04-05T17:23:26.874Z,43.20
2019-04-05T17:26:21.678Z,43.00
2019-04-05T17:29:17.501Z,43.40
2019-04-05T17:32:12.608Z,43.80
2019-04-05T17:35:08.199Z,43.20
2019-04-05T17:38:05.239Z,43.20
2019-04-05T17:41:00.812Z,43.20
2019-04-05T17:43:56.742Z,43.20
2019-04-05T17:46:52.274Z,43.20
2019-04-05T17:49:47.713Z,43.30
2019-04-05T17:52:43.915Z,43.20
2019-04-05T17:55:38.793Z,43.10
2019-04-05T17:58:35.350Z,43.20
2019-04-05T18:01:30.585Z,43.20
2019-04-05T18:04:27.172Z,43.20
2019-04-05T18:07:21.903Z,43.20
2019-04-05T18:10:16.945Z,43.20
2019-04-05T18:13:12.056Z,43.10
2019-04-05T18:16:06.933Z,43.20
2019-04-05T18:19:03.619Z,43.50
2019-04-05T18:21:58.807Z,43.20
2019-04-05T18:24:54.003Z,43.40
2019-04-05T18:27:49.039Z,43.10
2019-04-05T18:30:44.455Z,43.10
2019-04-05T18:33:41.506Z,43.30
2019-04-05T18:36:36.603Z,43.30
2019-04-05T18:39:31.718Z,43.20
2019-04-05T18:42:28.453Z,43.30
2019-04-05T18:45:23.725Z,43.30
2019-04-05T18:48:18.945Z,43.30
2019-04-05T18:51:13.889Z,43.50
2019-04-05T18:54:10.186Z,43.30
2019-04-05T18:57:05.050Z,43.40
2019-04-05T19:00:00.137Z,43.30
2019-04-05T19:02:55.148Z,43.30
2019-04-05T19:05:50.092Z,43.30
2019-04-05T19:08:47.693Z,43.40
2019-04-05T19:11:44.361Z,43.40
2019-04-05T19:14:39.548Z,43.30
2019-04-05T19:17:35.038Z,43.30
2019-04-05T19:20:30.307Z,43.40
2019-04-05T19:23:26.229Z,43.40
2019-04-05T19:26:21.787Z,43.30
2019-04-05T19:29:16.824Z,43.30
2019-04-05T19:49:53.225Z,43.40
2019-04-05T19:52:48.340Z,43.40
2019-04-05T19:55:43.306Z,43.50
2019-04-05T19:58:39.300Z,43.50
2019-04-05T20:01:34.347Z,43.50
2019-04-05T20:04:30.607Z,43.40
2019-04-05T20:07:25.761Z,43.40
2019-04-05T20:10:20.946Z,43.70
2019-04-05T20:13:16.072Z,43.50
2019-04-05T20:16:11.420Z,43.90
2019-04-05T20:19:06.324Z,43.70
2019-04-05T20:22:01.666Z,43.70
2019-04-05T20:24:56.857Z,43.70
2019-04-05T20:27:52.846Z,43.90
2019-04-05T20:30:48.513Z,43.80
2019-04-05T20:33:43.817Z,43.80
2019-04-05T20:36:38.703Z,43.90
2019-04-05T20:39:34.193Z,43.80
2019-04-05T20:42:29.116Z,43.90
2019-04-05T20:45:24.615Z,43.80
2019-04-05T20:48:20.112Z,43.80
2019-04-05T20:51:15.888Z,43.90
2019-04-05T20:54:11.076Z,43.80
2019-04-05T20:57:07.115Z,44.10
2019-04-05T21:00:02.481Z,44.30
2019-04-05T21:02:59.084Z,44.30
2019-04-05T21:05:54.060Z,44.10
2019-04-05T21:08:49.258Z,44.10
2019-04-05T21:11:44.559Z,44.10
2019-04-05T21:14:39.661Z,44.20
2019-04-05T21:17:35.182Z,44.40
2019-04-05T21:20:31.317Z,44.30
2019-04-05T21:23:26.524Z,44.80
2019-04-05T21:26:21.848Z,44.20
2019-04-05T21:29:16.731Z,44.40
2019-04-05T21:32:11.828Z,44.40
2019-04-05T21:35:06.817Z,44.40
2019-04-05T21:38:01.652Z,44.60
2019-04-05T21:40:58.399Z,44.30
2019-04-05T21:43:53.404Z,45.20
2019-04-05T21:46:48.277Z,44.60
2019-04-05T21:49:43.157Z,44.70
2019-04-05T21:52:38.370Z,44.70
2019-04-05T21:55:33.366Z,44.40
2019-04-05T21:58:28.713Z,44.80
2019-04-05T22:01:25.009Z,45.10
2019-04-05T22:04:21.402Z,44.60
2019-04-05T22:07:16.449Z,44.70
2019-04-05T22:10:12.570Z,44.60
2019-04-05T22:13:11.077Z,44.90
2019-04-05T22:16:06.372Z,45.10
2019-04-05T22:19:01.269Z,45.00
2019-04-05T22:21:56.615Z,44.70
2019-04-05T22:24:59.155Z,44.90
2019-04-05T22:27:48.819Z,45.30
2019-04-05T22:30:44.018Z,44.90
2019-04-05T22:33:39.201Z,45.00
2019-04-05T22:36:35.504Z,45.00
2019-04-05T22:39:30.556Z,45.10
2019-04-05T22:42:25.847Z,45.00
2019-04-05T22:45:21.197Z,45.10
2019-04-05T22:48:16.668Z,45.10
2019-04-05T22:51:11.729Z,45.20
2019-04-05T22:54:07.463Z,45.10
2019-04-05T22:57:03.413Z,45.20
2019-04-05T22:59:58.200Z,45.70
2019-04-05T23:02:53.584Z,45.40
2019-04-05T23:05:48.677Z,45.10
2019-04-05T23:08:43.823Z,45.50
2019-04-05T23:11:39.076Z,45.70
2019-04-05T23:14:34.537Z,45.10
2019-04-05T23:17:29.674Z,45.20
2019-04-05T23:20:25.004Z,45.20
2019-04-05T23:23:20.201Z,45.30
2019-04-05T23:26:16.569Z,45.10
2019-04-05T23:29:11.812Z,45.30
2019-04-05T23:32:07.035Z,45.30
2019-04-05T23:35:02.341Z,45.30
2019-04-05T23:37:57.999Z,45.30
2019-04-05T23:40:53.260Z,45.30
2019-04-05T23:43:48.564Z,45.30
2019-04-05T23:46:44.010Z,45.20
2019-04-05T23:49:39.722Z,45.60
2019-04-05T23:52:34.553Z,45.40
2019-04-05T23:55:33.559Z,45.40
2019-04-05T23:58:30.897Z,45.30
